Andrewsfield, United Kingdom
Current Conditions -  °F | °C
As of 7:50 AM on Tuesday 21 Oct 2014 (Local Time) from EGYM Reporting Station
Broken Clouds Broken Clouds  
Wind Chill: 55°   Ceiling: 1800
Heat Index: 55°   Visibility: 6mi
Dew Point: 52°   Wind: 23mph
Humidity: 88%   Direction: 210°SSW
Pressure: 29.41"   Gusts: NA
Location:  52.88°N, 0.45°E
Report Text: EGYM 210650Z 21020KT 9999 FEW013 BKN018 BKN027 13/11 Q0996 WHT TEMPO 4000 RA SCT010 GRN
Loading
Personal Weather Stations






























Interactive Weather Map
Tropical Storm Tracking
New forecast layout! Learn more

10-Day Weather Forecast

Advertisements
Track Severe Weather on mobile